Time;durP1;ratioP1;P1;durP2;ratioP2;P2;SDS_P1;SDS_P2;PMS_P1;PMS_P2;Temp;Humidity;BMP_temperature;BMP_pressure;BME280_temperature;BME280_humidity;BME280_pressure;Samples;Min_cycle;Max_cycle;Signal;HPM_P1;HPM_P2
2023/11/14 00:01:13;;;;;;;3.30;1.20;;;10.60;99.90;;;;;;5086922;28;20621;-75
2023/11/14 00:03:40;;;;;;;1.63;1.33;;;10.60;99.90;;;;;;5087016;28;20669;-75
2023/11/14 00:06:07;;;;;;;4.13;1.00;;;10.50;99.90;;;;;;5087147;28;21332;-74
2023/11/14 00:08:34;;;;;;;0.93;0.70;;;10.50;99.90;;;;;;5086336;28;21126;-75
2023/11/14 00:11:05;;;;;;;1.30;1.20;;;10.50;99.90;;;;;;5086826;28;21060;-75
2023/11/14 00:13:33;;;;;;;1.50;1.40;;;10.50;99.90;;;;;;5086612;28;20719;-75
2023/11/14 00:16:00;;;;;;;2.27;0.87;;;10.50;99.90;;;;;;5086671;28;20616;-75
2023/11/14 00:18:27;;;;;;;1.97;1.60;;;10.50;99.90;;;;;;5086262;28;21042;-75
2023/11/14 00:20:55;;;;;;;1.57;1.27;;;10.50;99.90;;;;;;5086750;28;21351;-74
2023/11/14 00:23:24;;;;;;;1.30;1.10;;;10.50;99.90;;;;;;5086444;28;20679;-75
2023/11/14 00:25:51;;;;;;;1.40;0.97;;;10.50;99.90;;;;;;5085709;28;21185;-75
2023/11/14 00:28:17;;;;;;;1.03;0.60;;;10.50;99.90;;;;;;5085592;28;20635;-75
2023/11/14 00:30:46;;;;;;;2.93;1.47;;;10.50;99.90;;;;;;5087582;28;20616;-75
2023/11/14 00:33:13;;;;;;;1.50;1.40;;;10.60;99.90;;;;;;5091264;28;20985;-74
2023/11/14 00:35:39;;;;;;;8.87;1.30;;;10.60;99.90;;;;;;5090985;28;20648;-74
2023/11/14 00:38:06;;;;;;;2.60;1.00;;;10.60;99.90;;;;;;5090505;28;20629;-75
2023/11/14 00:40:33;;;;;;;1.87;0.97;;;10.50;99.90;;;;;;5090505;28;20613;-74
2023/11/14 00:43:00;;;;;;;2.03;1.07;;;10.60;99.90;;;;;;5090321;28;20655;-74
2023/11/14 00:45:28;;;;;;;3.47;1.83;;;10.50;99.90;;;;;;5090984;28;20977;-74
2023/11/14 00:47:56;;;;;;;1.83;1.10;;;10.50;99.90;;;;;;5089947;28;20683;-74
2023/11/14 00:50:23;;;;;;;1.37;1.03;;;10.50;99.90;;;;;;5090448;28;21165;-74
2023/11/14 00:52:50;;;;;;;3.43;1.33;;;10.50;99.90;;;;;;5090647;28;20633;-74
2023/11/14 00:55:17;;;;;;;7.50;2.13;;;10.50;99.90;;;;;;5090211;28;20688;-74
2023/11/14 00:57:43;;;;;;;2.60;1.27;;;10.50;99.90;;;;;;5089504;28;20620;-74
2023/11/14 01:00:11;;;;;;;1.13;1.00;;;10.50;99.90;;;;;;5090518;28;21108;-74
2023/11/14 01:02:39;;;;;;;1.77;1.03;;;10.50;99.90;;;;;;5090527;28;20664;-74
2023/11/14 01:05:08;;;;;;;1.20;1.00;;;10.50;99.90;;;;;;5090259;28;21193;-74
2023/11/14 01:07:35;;;;;;;1.90;1.00;;;10.40;99.90;;;;;;5089961;28;20702;-74
2023/11/14 01:10:02;;;;;;;5.83;1.20;;;10.40;99.90;;;;;;5089780;28;20682;-74
2023/11/14 01:12:29;;;;;;;3.10;1.07;;;10.20;99.90;;;;;;5090077;28;20694;-74
2023/11/14 01:14:56;;;;;;;1.67;1.13;;;10.40;99.90;;;;;;5090102;28;20618;-74
2023/11/14 01:17:23;;;;;;;2.20;1.37;;;10.30;99.90;;;;;;5090128;28;20653;-74
2023/11/14 01:19:50;;;;;;;1.80;0.70;;;10.40;99.90;;;;;;5089486;28;20679;-74
2023/11/14 01:22:18;;;;;;;3.00;1.30;;;10.30;99.90;;;;;;5089813;28;21250;-74
2023/11/14 01:24:45;;;;;;;1.17;1.07;;;10.30;99.90;;;;;;5088215;28;21185;-74
2023/11/14 01:27:12;;;;;;;4.50;1.30;;;10.20;99.90;;;;;;5089748;28;20724;-74
2023/11/14 01:29:39;;;;;;;1.60;1.20;;;10.30;99.90;;;;;;5081190;28;20625;-74
2023/11/14 01:32:07;;;;;;;1.10;0.77;;;10.30;99.90;;;;;;5089846;28;20631;-74
2023/11/14 01:34:34;;;;;;;6.90;1.27;;;10.30;99.90;;;;;;5089868;28;20988;-74
2023/11/14 01:37:01;;;;;;;1.23;0.80;;;10.30;99.90;;;;;;5089138;28;21018;-74
2023/11/14 01:39:31;;;;;;;5.77;1.40;;;10.30;99.90;;;;;;5089087;28;20631;-74
2023/11/14 01:41:58;;;;;;;1.63;0.90;;;10.20;99.90;;;;;;5088911;28;20992;-74
2023/11/14 01:44:24;;;;;;;5.13;1.30;;;10.20;99.90;;;;;;5089376;28;20624;-74
2023/11/14 01:46:52;;;;;;;1.13;1.00;;;10.20;99.90;;;;;;5089477;28;20621;-74
2023/11/14 01:49:19;;;;;;;1.53;0.63;;;10.20;99.90;;;;;;5088678;28;20628;-74
2023/11/14 01:51:46;;;;;;;2.40;1.17;;;10.20;99.90;;;;;;5089272;28;20629;-74
2023/11/14 01:54:14;;;;;;;1.07;1.00;;;10.20;99.90;;;;;;5089451;28;21190;-74
2023/11/14 01:56:43;;;;;;;1.00;0.90;;;10.20;99.90;;;;;;5089295;28;20625;-74
2023/11/14 01:59:10;;;;;;;1.90;1.50;;;10.10;99.90;;;;;;5080499;28;20633;-74
2023/11/14 02:01:38;;;;;;;2.97;1.20;;;10.10;99.90;;;;;;5088493;28;20621;-74
2023/11/14 02:04:10;;;;;;;1.30;0.77;;;10.10;99.90;;;;;;5088630;28;20675;-74
2023/11/14 02:06:37;;;;;;;1.13;0.73;;;10.10;99.90;;;;;;5089187;28;20640;-74
2023/11/14 02:09:06;;;;;;;6.47;1.77;;;10.10;99.90;;;;;;5088201;28;21181;-74
2023/11/14 02:11:34;;;;;;;2.07;0.80;;;10.10;99.90;;;;;;5088698;28;20624;-74
2023/11/14 02:14:04;;;;;;;4.70;1.40;;;10.00;99.90;;;;;;5088607;28;20660;-75
2023/11/14 02:16:46;;;;;;;4.03;1.87;;;9.90;99.90;;;;;;5088766;28;20621;-75
2023/11/14 02:19:14;;;;;;;2.40;1.23;;;10.00;99.90;;;;;;5088395;28;20632;-75
2023/11/14 02:21:43;;;;;;;1.30;0.90;;;9.90;99.90;;;;;;5089003;28;20991;-74
2023/11/14 02:24:15;;;;;;;2.57;1.23;;;9.90;99.90;;;;;;5087087;28;20652;-75
2023/11/14 02:26:46;;;;;;;9.07;0.97;;;9.80;99.90;;;;;;5088604;28;20666;-75
2023/11/14 02:29:15;;;;;;;1.10;0.90;;;9.80;99.90;;;;;;5087434;28;20621;-74
2023/11/14 02:31:43;;;;;;;1.40;0.70;;;9.90;99.90;;;;;;5080617;28;20633;-74
2023/11/14 02:34:11;;;;;;;2.70;0.80;;;9.80;99.90;;;;;;5088682;28;20666;-74
2023/11/14 02:36:39;;;;;;;2.70;0.90;;;9.70;99.90;;;;;;5088730;28;20692;-74
2023/11/14 02:39:08;;;;;;;2.40;1.20;;;9.70;99.90;;;;;;5087983;28;20617;-74
2023/11/14 02:41:36;;;;;;;3.93;1.17;;;9.70;99.90;;;;;;5087896;28;20632;-74
2023/11/14 02:44:06;;;;;;;1.20;1.10;;;9.70;99.90;;;;;;5088531;28;20691;-74
2023/11/14 02:46:34;;;;;;;1.50;1.20;;;9.70;99.90;;;;;;5088544;28;21197;-74
2023/11/14 02:49:23;;;;;;;4.53;1.27;;;9.70;99.90;;;;;;5087666;28;20636;-74
2023/11/14 02:51:51;;;;;;;1.23;0.80;;;9.70;99.90;;;;;;5088617;28;20712;-74
2023/11/14 02:54:18;;;;;;;2.20;0.80;;;9.70;99.90;;;;;;5087399;28;20625;-74
2023/11/14 02:56:45;;;;;;;2.17;1.00;;;9.70;99.90;;;;;;5087990;28;20625;-74
2023/11/14 02:59:14;;;;;;;1.80;1.03;;;9.70;99.90;;;;;;5087527;28;21071;-74
2023/11/14 03:01:41;;;;;;;1.00;1.00;;;9.60;99.90;;;;;;5088105;28;20618;-74
2023/11/14 03:04:08;;;;;;;2.70;1.13;;;9.50;99.90;;;;;;5087983;28;20693;-74
2023/11/14 03:06:39;;;;;;;2.50;1.10;;;9.60;99.90;;;;;;5087492;28;21017;-74
2023/11/14 03:09:06;;;;;;;2.60;1.10;;;9.60;99.90;;;;;;5087397;28;20629;-74
2023/11/14 03:11:33;;;;;;;2.00;1.20;;;9.50;99.90;;;;;;5087880;28;20686;-74
2023/11/14 03:14:00;;;;;;;5.57;2.00;;;9.50;99.90;;;;;;5087761;28;20633;-74
2023/11/14 03:16:30;;;;;;;2.83;1.23;;;9.40;99.90;;;;;;5084633;28;20618;-74
2023/11/14 03:18:58;;;;;;;8.60;1.30;;;9.30;99.90;;;;;;5087492;28;20724;-74
2023/11/14 03:21:26;;;;;;;1.90;1.27;;;9.30;99.90;;;;;;5087501;28;20657;-74
2023/11/14 03:23:54;;;;;;;3.43;1.40;;;9.30;99.90;;;;;;5088010;28;20660;-74
2023/11/14 03:26:31;;;;;;;1.10;1.10;;;9.20;99.90;;;;;;5087382;28;20617;-74
2023/11/14 03:28:59;;;;;;;1.93;1.20;;;9.20;99.90;;;;;;5085848;28;20711;-75
2023/11/14 03:31:27;;;;;;;1.40;1.30;;;9.20;99.90;;;;;;5086669;28;20625;-75
2023/11/14 03:33:56;;;;;;;1.27;0.87;;;9.10;99.90;;;;;;5084805;28;20610;-75
2023/11/14 03:36:23;;;;;;;1.60;1.50;;;9.10;99.90;;;;;;5086637;28;20635;-75
2023/11/14 03:38:51;;;;;;;1.70;1.40;;;9.10;99.90;;;;;;5084643;28;20708;-75
2023/11/14 03:41:19;;;;;;;1.50;1.20;;;9.10;99.90;;;;;;5086518;28;20620;-75
2023/11/14 03:43:47;;;;;;;3.07;1.73;;;9.10;99.90;;;;;;5086538;28;20651;-74
2023/11/14 03:46:15;;;;;;;2.67;1.27;;;9.10;99.90;;;;;;5086467;28;20628;-75
2023/11/14 03:48:43;;;;;;;3.03;1.03;;;9.10;99.90;;;;;;5086897;28;20643;-75
2023/11/14 03:51:11;;;;;;;3.13;1.10;;;9.10;99.90;;;;;;5083262;28;20625;-75
2023/11/14 03:53:39;;;;;;;8.13;1.17;;;9.10;99.90;;;;;;5087113;28;20642;-74
2023/11/14 03:56:06;;;;;;;1.20;1.10;;;9.10;99.90;;;;;;5087142;28;20638;-75
2023/11/14 03:58:33;;;;;;;1.37;1.27;;;9.10;99.90;;;;;;5086323;28;20628;-74
2023/11/14 04:01:00;;;;;;;3.90;2.07;;;9.10;99.90;;;;;;5086603;28;21124;-75
2023/11/14 04:03:27;;;;;;;1.17;1.07;;;9.10;99.90;;;;;;5086743;28;21241;-75
2023/11/14 04:05:53;;;;;;;2.13;1.63;;;9.00;99.90;;;;;;5086431;28;20964;-75
2023/11/14 04:08:21;;;;;;;4.50;2.33;;;9.10;99.90;;;;;;5086210;28;20625;-74
2023/11/14 04:10:48;;;;;;;1.50;1.27;;;9.10;99.90;;;;;;5086625;28;20620;-75
2023/11/14 04:13:15;;;;;;;2.27;1.43;;;9.10;99.90;;;;;;5086300;28;20633;-74
2023/11/14 04:15:42;;;;;;;1.30;1.20;;;9.10;99.90;;;;;;5086529;28;20724;-75
2023/11/14 04:18:09;;;;;;;4.37;0.90;;;9.10;99.90;;;;;;5078158;28;21037;-74
2023/11/14 04:20:35;;;;;;;3.20;1.10;;;9.00;99.90;;;;;;5087257;28;21233;-75
2023/11/14 04:23:02;;;;;;;2.73;2.13;;;9.10;99.90;;;;;;5086866;28;20656;-74
2023/11/14 04:25:30;;;;;;;1.23;0.87;;;9.10;99.90;;;;;;5085744;28;20678;-74
2023/11/14 04:27:57;;;;;;;2.43;1.40;;;9.10;99.90;;;;;;5095673;28;20719;-74
2023/11/14 04:30:24;;;;;;;2.40;1.00;;;9.10;99.90;;;;;;5092603;28;21132;-75
2023/11/14 04:32:51;;;;;;;1.33;1.20;;;9.20;99.90;;;;;;5086875;28;20624;-75
2023/11/14 04:35:18;;;;;;;2.90;1.60;;;9.20;99.90;;;;;;5086424;28;20624;-75
2023/11/14 04:37:45;;;;;;;4.03;1.27;;;9.20;99.90;;;;;;5086093;28;20621;-75
2023/11/14 04:40:12;;;;;;;0.90;0.90;;;9.20;99.90;;;;;;5086338;28;20699;-75
2023/11/14 04:42:40;;;;;;;1.70;1.20;;;9.20;99.90;;;;;;5086092;28;21653;-75
2023/11/14 04:45:08;;;;;;;2.00;1.23;;;9.20;99.90;;;;;;5086267;28;20703;-74
2023/11/14 04:47:34;;;;;;;1.50;1.40;;;9.20;99.90;;;;;;5085934;28;20618;-74
2023/11/14 04:50:01;;;;;;;1.43;1.20;;;9.20;99.90;;;;;;5086470;28;20794;-75
2023/11/14 04:52:28;;;;;;;1.63;1.33;;;9.20;99.90;;;;;;5086300;28;20619;-74
2023/11/14 04:54:54;;;;;;;2.50;1.33;;;9.10;99.90;;;;;;5086077;28;20644;-75
2023/11/14 04:57:21;;;;;;;1.77;1.27;;;9.10;99.90;;;;;;5086319;28;20991;-75
2023/11/14 04:59:49;;;;;;;0.97;0.97;;;9.10;99.90;;;;;;5085706;28;21203;-75
2023/11/14 05:02:17;;;;;;;1.10;1.00;;;9.20;99.90;;;;;;5086206;28;20677;-75
2023/11/14 05:04:44;;;;;;;3.80;1.53;;;9.10;99.90;;;;;;5086311;28;20781;-75
2023/11/14 05:07:11;;;;;;;1.40;1.30;;;9.20;99.90;;;;;;5086249;28;20779;-75
2023/11/14 05:09:39;;;;;;;1.80;1.67;;;9.10;99.90;;;;;;5085354;28;20700;-75
2023/11/14 05:12:06;;;;;;;2.17;1.87;;;9.10;99.90;;;;;;5086307;28;20621;-75
2023/11/14 05:14:33;;;;;;;1.60;1.10;;;9.10;99.90;;;;;;5086013;28;20724;-75
2023/11/14 05:17:01;;;;;;;1.23;0.90;;;9.20;99.90;;;;;;5087790;28;20621;-75
2023/11/14 05:19:28;;;;;;;1.60;1.30;;;9.30;99.90;;;;;;5089843;28;20980;-75
2023/11/14 05:21:55;;;;;;;2.40;1.30;;;9.30;99.90;;;;;;5090044;28;20624;-75
2023/11/14 05:24:21;;;;;;;2.53;1.67;;;9.40;99.90;;;;;;5088457;28;21033;-75
2023/11/14 05:26:49;;;;;;;5.37;1.20;;;9.40;99.90;;;;;;5090049;28;20613;-75
2023/11/14 05:29:16;;;;;;;1.40;1.30;;;9.40;99.90;;;;;;5089350;28;20624;-75
2023/11/14 05:31:43;;;;;;;3.67;1.50;;;9.30;99.90;;;;;;5089795;28;21126;-75
2023/11/14 05:34:11;;;;;;;2.30;1.77;;;9.40;99.90;;;;;;5089997;28;20628;-75
2023/11/14 05:36:38;;;;;;;2.70;1.53;;;9.30;99.90;;;;;;5089633;28;21013;-75
2023/11/14 05:39:05;;;;;;;4.30;1.40;;;9.30;99.90;;;;;;5088927;28;20613;-75
2023/11/14 05:41:32;;;;;;;2.10;1.30;;;9.30;99.90;;;;;;5089754;28;20624;-75
2023/11/14 05:43:59;;;;;;;2.63;1.93;;;9.30;99.90;;;;;;5089434;28;21009;-75
2023/11/14 05:46:26;;;;;;;0.80;0.80;;;9.20;99.90;;;;;;5089140;28;20628;-75
2023/11/14 05:48:52;;;;;;;1.07;0.90;;;9.30;99.90;;;;;;5088691;28;20617;-75
2023/11/14 05:51:21;;;;;;;3.00;2.00;;;9.30;99.90;;;;;;5088825;28;20628;-75
2023/11/14 05:53:48;;;;;;;2.87;1.40;;;9.30;99.90;;;;;;5089642;28;20977;-74
2023/11/14 05:56:14;;;;;;;1.00;0.80;;;9.30;99.90;;;;;;5089415;28;20627;-75
2023/11/14 05:58:41;;;;;;;3.60;2.17;;;9.30;99.90;;;;;;5088899;28;20629;-75
2023/11/14 06:01:10;;;;;;;3.43;1.30;;;9.30;99.90;;;;;;5089127;28;20698;-75
2023/11/14 06:03:37;;;;;;;2.77;1.50;;;9.30;99.90;;;;;;5089196;28;21028;-75
2023/11/14 06:06:04;;;;;;;3.13;1.40;;;9.30;99.90;;;;;;5088933;28;20620;-75
2023/11/14 06:08:32;;;;;;;1.47;1.10;;;9.20;99.90;;;;;;5088711;28;20619;-75
2023/11/14 06:11:00;;;;;;;1.23;1.13;;;9.20;99.90;;;;;;5080980;28;20629;-75
2023/11/14 06:13:26;;;;;;;4.20;1.20;;;9.20;99.90;;;;;;5088701;28;20640;-75
2023/11/14 06:15:53;;;;;;;1.03;0.93;;;9.20;99.90;;;;;;5088787;28;20624;-74
2023/11/14 06:18:20;;;;;;;2.10;1.30;;;9.20;99.90;;;;;;5087749;28;20625;-75
2023/11/14 06:20:47;;;;;;;1.00;0.90;;;9.20;99.90;;;;;;5088700;28;20631;-74
2023/11/14 06:23:14;;;;;;;1.43;1.17;;;9.10;99.90;;;;;;5089103;28;21165;-75
2023/11/14 06:25:42;;;;;;;1.00;1.00;;;9.10;99.90;;;;;;5087952;28;21033;-75
2023/11/14 06:28:09;;;;;;;1.40;1.30;;;9.10;99.90;;;;;;5087956;28;20621;-74
2023/11/14 06:30:35;;;;;;;4.57;1.60;;;9.10;99.90;;;;;;5088455;28;20644;-75
2023/11/14 06:33:03;;;;;;;1.33;1.20;;;9.10;99.90;;;;;;5087713;28;21144;-75
2023/11/14 06:35:30;;;;;;;3.30;2.17;;;9.00;99.90;;;;;;5088343;28;20633;-74
2023/11/14 06:37:56;;;;;;;3.27;1.33;;;9.00;99.90;;;;;;5088318;28;20617;-75
2023/11/14 06:40:23;;;;;;;2.33;1.33;;;9.00;99.90;;;;;;5088480;28;20636;-75
2023/11/14 06:42:51;;;;;;;2.93;1.00;;;9.00;99.90;;;;;;5088318;28;20633;-75
2023/11/14 06:45:18;;;;;;;0.90;0.90;;;8.90;99.90;;;;;;5088058;28;20762;-74
2023/11/14 06:47:45;;;;;;;1.13;1.03;;;9.00;99.90;;;;;;5087817;28;20628;-74
2023/11/14 06:50:12;;;;;;;2.73;1.73;;;8.90;99.90;;;;;;5088452;28;20627;-75
2023/11/14 06:52:39;;;;;;;1.40;0.73;;;8.90;99.90;;;;;;5079954;28;20624;-74
2023/11/14 06:55:06;;;;;;;3.53;1.37;;;8.90;99.90;;;;;;5087901;28;20629;-74
2023/11/14 06:57:33;;;;;;;0.90;0.90;;;8.90;99.90;;;;;;5087445;28;20623;-74
2023/11/14 07:00:03;;;;;;;1.90;1.13;;;9.00;99.90;;;;;;5087762;28;20629;-75
2023/11/14 07:02:29;;;;;;;0.90;0.80;;;9.00;99.90;;;;;;5087994;28;20621;-75
2023/11/14 07:04:56;;;;;;;5.03;0.80;;;9.00;99.90;;;;;;5088156;28;20691;-75
2023/11/14 07:07:23;;;;;;;1.27;1.00;;;9.00;99.90;;;;;;5088232;28;20988;-75
2023/11/14 07:09:50;;;;;;;0.80;0.80;;;9.10;99.90;;;;;;5087673;28;20629;-75
2023/11/14 07:12:18;;;;;;;0.77;0.77;;;9.10;99.90;;;;;;5087830;28;20627;-75
2023/11/14 07:14:44;;;;;;;1.13;0.83;;;9.20;99.90;;;;;;5086995;28;20621;-75
2023/11/14 07:17:13;;;;;;;1.23;1.13;;;9.20;99.90;;;;;;5087995;28;20625;-75
2023/11/14 07:19:40;;;;;;;4.20;0.97;;;9.20;99.90;;;;;;5087369;28;20632;-75
2023/11/14 07:22:07;;;;;;;0.73;0.70;;;9.10;99.90;;;;;;5088169;28;20632;-75
2023/11/14 07:24:34;;;;;;;1.00;0.90;;;9.20;99.90;;;;;;5087589;28;20649;-75
2023/11/14 07:27:01;;;;;;;1.57;0.97;;;9.20;99.90;;;;;;5087099;28;20629;-75
2023/11/14 07:29:27;;;;;;;0.97;0.93;;;9.20;99.90;;;;;;5086804;28;20636;-75
2023/11/14 07:31:54;;;;;;;0.50;0.50;;;9.20;99.90;;;;;;5087392;28;20621;-75
2023/11/14 07:34:25;;;;;;;1.30;1.20;;;9.30;99.90;;;;;;5079119;28;20636;-75
2023/11/14 07:36:52;;;;;;;1.73;0.87;;;9.30;99.90;;;;;;5087592;28;20660;-75
2023/11/14 07:39:19;;;;;;;1.53;1.10;;;9.40;99.90;;;;;;5086643;28;20636;-75
2023/11/14 07:41:46;;;;;;;2.27;1.10;;;9.50;99.90;;;;;;5085957;28;20626;-75
2023/11/14 07:44:13;;;;;;;1.23;1.13;;;9.60;99.90;;;;;;5087188;28;20680;-75
2023/11/14 07:46:42;;;;;;;1.10;1.00;;;9.70;99.90;;;;;;5087594;28;20636;-75
2023/11/14 07:49:09;;;;;;;0.70;0.70;;;9.70;99.90;;;;;;5086367;28;20632;-75
2023/11/14 07:51:37;;;;;;;0.90;0.90;;;9.70;99.90;;;;;;5087238;28;20621;-75
2023/11/14 07:54:04;;;;;;;0.93;0.93;;;9.70;99.90;;;;;;5086829;28;20952;-75
2023/11/14 07:56:32;;;;;;;1.23;0.90;;;9.70;99.90;;;;;;5086738;28;20617;-75
2023/11/14 07:58:59;;;;;;;0.57;0.57;;;9.70;99.90;;;;;;5086720;28;20636;-75
2023/11/14 08:01:25;;;;;;;5.80;1.27;;;9.80;99.90;;;;;;5087045;28;21180;-75
2023/11/14 08:03:52;;;;;;;6.87;2.43;;;9.80;99.90;;;;;;5086693;28;20621;-75
2023/11/14 08:06:19;;;;;;;0.53;0.40;;;9.80;99.90;;;;;;5086766;28;20629;-75
2023/11/14 08:08:47;;;;;;;1.90;1.00;;;9.90;99.90;;;;;;5085708;28;20621;-75
2023/11/14 08:11:14;;;;;;;1.07;0.97;;;9.80;99.90;;;;;;5087410;28;20645;-75
2023/11/14 08:13:41;;;;;;;1.37;1.10;;;9.80;99.90;;;;;;5086566;28;20629;-75
2023/11/14 08:16:08;;;;;;;0.70;0.70;;;9.90;99.90;;;;;;5086877;28;20621;-75
2023/11/14 08:18:35;;;;;;;0.80;0.60;;;10.00;99.90;;;;;;5086161;28;20656;-75
2023/11/14 08:21:02;;;;;;;0.53;0.53;;;10.00;99.90;;;;;;5086867;28;20631;-76
2023/11/14 08:23:31;;;;;;;0.63;0.63;;;10.10;99.90;;;;;;5086171;28;20632;-75
2023/11/14 08:25:59;;;;;;;4.60;0.93;;;10.10;99.90;;;;;;5086450;28;20920;-74
2023/11/14 08:28:26;;;;;;;1.63;0.97;;;10.20;99.90;;;;;;5086076;28;20621;-74
2023/11/14 08:30:53;;;;;;;0.87;0.87;;;10.20;99.90;;;;;;5086850;28;20720;-75
2023/11/14 08:33:20;;;;;;;0.97;0.50;;;10.20;99.90;;;;;;5078344;28;20625;-75
2023/11/14 08:35:46;;;;;;;0.97;0.93;;;10.20;99.90;;;;;;5086705;28;20635;-74
2023/11/14 08:38:13;;;;;;;0.60;0.60;;;10.30;99.90;;;;;;5085909;28;20632;-75
2023/11/14 08:40:40;;;;;;;1.53;0.50;;;10.30;99.90;;;;;;5086716;28;20727;-75
2023/11/14 08:43:08;;;;;;;2.40;1.03;;;10.30;99.90;;;;;;5086830;28;20641;-74
2023/11/14 08:45:35;;;;;;;0.67;0.50;;;10.30;99.90;;;;;;5086528;28;20669;-75
2023/11/14 08:48:03;;;;;;;0.67;0.50;;;10.30;99.90;;;;;;5086062;28;21040;-75
2023/11/14 08:50:30;;;;;;;3.00;1.10;;;10.30;99.90;;;;;;5085688;28;20712;-75
2023/11/14 08:52:57;;;;;;;0.50;0.50;;;10.30;99.90;;;;;;5089500;28;20720;-74
2023/11/14 08:55:23;;;;;;;0.80;0.70;;;10.30;99.90;;;;;;5090627;28;20636;-75
2023/11/14 08:57:50;;;;;;;1.47;0.50;;;10.30;99.90;;;;;;5090205;28;20627;-75
2023/11/14 09:00:19;;;;;;;0.70;0.60;;;10.40;99.90;;;;;;5090425;28;20633;-74
2023/11/14 09:02:46;;;;;;;1.33;0.80;;;10.40;99.90;;;;;;5090320;28;20628;-75
2023/11/14 09:05:13;;;;;;;0.77;0.70;;;10.40;99.90;;;;;;5089753;28;20692;-74
2023/11/14 09:07:39;;;;;;;0.70;0.50;;;10.30;99.90;;;;;;5089900;28;21216;-74
2023/11/14 09:10:07;;;;;;;4.00;1.63;;;10.40;99.90;;;;;;5090503;28;20631;-75
2023/11/14 09:12:34;;;;;;;1.07;1.03;;;10.40;99.90;;;;;;5090039;28;20673;-75
2023/11/14 09:15:01;;;;;;;0.87;0.70;;;10.40;99.90;;;;;;5081550;28;20987;-74
2023/11/14 09:17:31;;;;;;;2.90;1.00;;;10.40;99.90;;;;;;5089911;28;20710;-75
2023/11/14 09:19:58;;;;;;;2.50;1.17;;;10.30;99.90;;;;;;5089991;28;20629;-74
2023/11/14 09:22:28;;;;;;;0.50;0.50;;;10.40;99.90;;;;;;5090255;28;20631;-74
2023/11/14 09:24:56;;;;;;;0.80;0.80;;;10.30;99.90;;;;;;5089761;28;20657;-74
2023/11/14 09:27:24;;;;;;;1.20;1.10;;;10.30;99.90;;;;;;5089894;28;20656;-75
2023/11/14 09:29:51;;;;;;;0.57;0.50;;;10.40;99.90;;;;;;5089176;28;20629;-75
2023/11/14 09:32:19;;;;;;;2.43;0.70;;;10.40;99.90;;;;;;5089846;28;20617;-75
2023/11/14 09:34:47;;;;;;;2.63;0.63;;;10.50;99.90;;;;;;5089631;28;21213;-73
2023/11/14 09:37:14;;;;;;;0.67;0.60;;;10.50;99.90;;;;;;5089865;28;20631;-74
2023/11/14 09:39:42;;;;;;;3.70;0.70;;;10.50;99.90;;;;;;5089134;28;20720;-74
2023/11/14 09:42:09;;;;;;;0.53;0.50;;;10.40;99.90;;;;;;5090049;28;20617;-74
2023/11/14 09:44:36;;;;;;;0.70;0.70;;;10.40;99.90;;;;;;5088865;28;20629;-75
2023/11/14 09:47:04;;;;;;;1.53;0.70;;;10.40;99.90;;;;;;5089569;28;21006;-75
2023/11/14 09:49:31;;;;;;;0.73;0.30;;;10.40;99.90;;;;;;5088845;28;20757;-75
2023/11/14 09:52:00;;;;;;;0.47;0.33;;;10.40;99.90;;;;;;5089534;28;21125;-75
2023/11/14 09:54:28;;;;;;;1.10;0.60;;;10.50;99.90;;;;;;5089338;28;20716;-75
2023/11/14 09:56:56;;;;;;;1.33;0.80;;;10.50;99.90;;;;;;5088921;28;20736;-75
2023/11/14 09:59:23;;;;;;;0.70;0.60;;;10.40;99.90;;;;;;5088172;28;20627;-74
2023/11/14 10:01:50;;;;;;;1.13;0.70;;;10.40;99.90;;;;;;5089471;28;20979;-75
2023/11/14 10:04:17;;;;;;;1.23;0.60;;;10.50;99.90;;;;;;5088352;28;20624;-75
2023/11/14 10:06:43;;;;;;;1.50;0.90;;;10.40;99.90;;;;;;5089042;28;20679;-75
2023/11/14 10:09:15;;;;;;;1.67;1.03;;;10.40;99.90;;;;;;5088515;28;20627;-75
2023/11/14 10:11:45;;;;;;;0.60;0.60;;;10.50;99.90;;;;;;5089093;28;20630;-75
2023/11/14 10:14:12;;;;;;;0.67;0.50;;;10.50;99.90;;;;;;5090568;28;21043;-75
2023/11/14 10:16:39;;;;;;;2.37;1.00;;;10.50;99.90;;;;;;5089171;28;20663;-75
2023/11/14 10:19:14;;;;;;;0.50;0.50;;;10.50;99.90;;;;;;5088559;28;20731;-75
2023/11/14 10:21:41;;;;;;;0.63;0.50;;;10.50;99.90;;;;;;5088654;28;21208;-74
2023/11/14 10:24:14;;;;;;;1.30;0.70;;;10.50;99.90;;;;;;5087582;28;20621;-75
2023/11/14 10:26:52;;;;;;;8.13;1.10;;;10.50;99.90;;;;;;5088972;28;20672;-75
2023/11/14 10:29:20;;;;;;;2.20;0.67;;;10.50;99.90;;;;;;5080447;28;20625;-74
2023/11/14 10:31:48;;;;;;;0.80;0.70;;;10.50;99.90;;;;;;5088795;28;20621;-75
2023/11/14 10:34:26;;;;;;;0.70;0.60;;;10.50;99.90;;;;;;5088539;28;20628;-74
2023/11/14 10:36:54;;;;;;;1.00;0.70;;;10.50;99.90;;;;;;5087766;28;20628;-75
2023/11/14 10:39:22;;;;;;;0.70;0.70;;;10.50;99.90;;;;;;5088092;28;20655;-75
2023/11/14 10:41:50;;;;;;;5.30;1.10;;;10.60;99.90;;;;;;5088814;28;20625;-75
2023/11/14 10:44:17;;;;;;;0.70;0.70;;;10.50;99.90;;;;;;5088554;28;21109;-74
2023/11/14 10:46:52;;;;;;;0.70;0.70;;;10.50;99.90;;;;;;5088301;28;20678;-75
2023/11/14 10:49:19;;;;;;;0.63;0.53;;;10.60;99.90;;;;;;5087475;28;20613;-75
2023/11/14 10:51:48;;;;;;;0.70;0.40;;;10.50;99.90;;;;;;5087975;28;21245;-75
2023/11/14 10:54:16;;;;;;;0.70;0.70;;;10.60;99.90;;;;;;5088512;28;20628;-75
2023/11/14 10:56:45;;;;;;;1.83;0.80;;;10.60;99.90;;;;;;5079971;28;20731;-75
2023/11/14 10:59:14;;;;;;;0.93;0.67;;;10.60;99.90;;;;;;5087652;28;20617;-75
2023/11/14 11:01:41;;;;;;;1.80;0.70;;;10.60;99.90;;;;;;5087574;28;20665;-74
2023/11/14 11:04:09;;;;;;;0.60;0.60;;;10.70;99.90;;;;;;5088179;28;21213;-75
2023/11/14 11:06:37;;;;;;;1.10;1.07;;;10.70;99.90;;;;;;5087776;28;20672;-74
2023/11/14 11:09:06;;;;;;;1.07;0.53;;;10.70;99.90;;;;;;5087511;28;20632;-75
2023/11/14 11:11:38;;;;;;;0.87;0.80;;;10.70;99.90;;;;;;5088112;28;21035;-75
2023/11/14 11:14:10;;;;;;;1.17;0.60;;;10.70;99.90;;;;;;5079902;28;20679;-75
2023/11/14 11:16:44;;;;;;;1.47;0.90;;;10.70;99.90;;;;;;5087893;28;20732;-75
2023/11/14 11:19:12;;;;;;;1.10;0.70;;;10.70;99.90;;;;;;5079690;28;20612;-74
2023/11/14 11:21:39;;;;;;;2.43;0.70;;;10.70;99.90;;;;;;5087830;28;20629;-75
2023/11/14 11:24:11;;;;;;;0.73;0.73;;;10.90;99.90;;;;;;5087684;28;20613;-75
2023/11/14 11:27:17;;;;;;;0.77;0.70;;;10.90;99.90;;;;;;5087331;28;20751;-75
2023/11/14 11:30:07;;;;;;;0.70;0.57;;;11.00;99.90;;;;;;5083067;28;20620;-75
2023/11/14 11:32:35;;;;;;;0.97;0.83;;;11.10;99.90;;;;;;5081969;28;20625;-75
2023/11/14 11:35:26;;;;;;;0.77;0.77;;;11.20;99.90;;;;;;5086859;28;20617;-74
2023/11/14 11:37:55;;;;;;;0.77;0.77;;;11.30;99.90;;;;;;5086785;28;20628;-75
2023/11/14 11:40:25;;;;;;;1.13;0.90;;;11.30;99.90;;;;;;5087369;28;20618;-74
2023/11/14 11:42:55;;;;;;;0.70;0.50;;;11.30;99.90;;;;;;5087563;28;20621;-75
2023/11/14 11:45:34;;;;;;;1.00;0.50;;;11.30;99.90;;;;;;5086834;28;20653;-74
2023/11/14 11:48:02;;;;;;;0.70;0.60;;;11.20;99.90;;;;;;5086748;28;20629;-75
2023/11/14 11:50:31;;;;;;;0.60;0.60;;;11.20;99.90;;;;;;5087193;28;20629;-75
2023/11/14 11:53:02;;;;;;;0.50;0.50;;;11.10;99.90;;;;;;5087493;28;20633;-75
2023/11/14 11:55:29;;;;;;;6.27;1.17;;;11.00;99.90;;;;;;5087011;28;21223;-75
2023/11/14 11:58:01;;;;;;;2.60;0.70;;;11.10;99.90;;;;;;5086042;28;20632;-75
2023/11/14 12:00:29;;;;;;;3.33;0.70;;;11.00;99.90;;;;;;5087139;28;20661;-75
2023/11/14 12:02:59;;;;;;;0.90;0.67;;;11.10;99.90;;;;;;5087101;28;20652;-75
2023/11/14 12:05:27;;;;;;;6.20;1.33;;;11.10;99.90;;;;;;5087539;28;20741;-75
2023/11/14 12:07:54;;;;;;;1.03;0.73;;;11.10;99.90;;;;;;5078418;28;20661;-75
2023/11/14 12:10:21;;;;;;;1.03;0.93;;;11.20;99.90;;;;;;5086807;28;20639;-75
2023/11/14 12:12:51;;;;;;;1.60;0.90;;;11.10;99.90;;;;;;5086611;28;20628;-75
2023/11/14 12:15:19;;;;;;;1.20;1.00;;;11.20;99.90;;;;;;5086799;28;20628;-75
2023/11/14 12:17:51;;;;;;;0.53;0.50;;;11.30;99.90;;;;;;5086362;28;21172;-75
2023/11/14 12:20:21;;;;;;;1.10;0.70;;;11.20;99.90;;;;;;5086836;28;20724;-75
2023/11/14 12:22:49;;;;;;;1.23;1.03;;;11.10;99.90;;;;;;5086611;28;20909;-75
2023/11/14 12:25:18;;;;;;;5.03;1.30;;;11.10;99.90;;;;;;5086205;28;20617;-75
2023/11/14 12:28:00;;;;;;;4.33;0.63;;;11.30;99.90;;;;;;5085789;28;20977;-75
2023/11/14 12:30:28;;;;;;;0.50;0.50;;;11.20;99.90;;;;;;5079005;28;20734;-75
2023/11/14 12:33:09;;;;;;;0.83;0.80;;;11.20;99.90;;;;;;5086708;28;20644;-75
2023/11/14 12:35:48;;;;;;;1.47;0.80;;;11.30;99.90;;;;;;5086117;28;20625;-75
2023/11/14 12:38:15;;;;;;;0.67;0.60;;;11.30;99.90;;;;;;5086278;28;20616;-74
2023/11/14 12:40:42;;;;;;;1.03;0.40;;;11.30;99.90;;;;;;5086636;28;20708;-75
2023/11/14 12:43:09;;;;;;;1.73;0.80;;;11.30;99.90;;;;;;5086745;28;20632;-75
2023/11/14 12:45:46;;;;;;;1.37;0.53;;;11.20;99.90;;;;;;5086300;28;20629;-75
2023/11/14 12:48:13;;;;;;;0.90;0.70;;;11.20;99.90;;;;;;5085593;28;20631;-75
2023/11/14 12:50:42;;;;;;;0.83;0.70;;;11.10;99.90;;;;;;5086663;28;20625;-74
2023/11/14 12:53:12;;;;;;;2.30;0.63;;;11.20;99.90;;;;;;5086512;28;20682;-74
2023/11/14 12:55:39;;;;;;;1.03;1.00;;;11.10;99.90;;;;;;5077885;28;20613;-75